Hauptseite
METAR-TAF:

METAR-TAF

Flughäfen :

Flughafen Lille

Lille, Frankreich

Breite: 50-34N, Länge: 003-06E, Höhe: 48 m

Beobachtung

Neuester Wetterbericht von vor 38 Minuten, um 12:30 UTC
Wind 13 kt aus Nord, variierte zwischen Nordwest und Nord/Nordost
Temperatur 24°C
Luftfeuchtigkeit 34%
Luftdruck 1033 hPa
Sichtweite 10 km oder mehr
keine Wolken unter 1500 m und keine Kumulonimbus oder Gewitterwolken

METAR: LFQQ 271230Z AUTO 35013KT 320V020 CAVOK 24/07 Q1033 NOSIG

Zeit: 15:08 (13:08 UTC)

Prognose

Neuester Wetterbericht von vor 2 Stunden und 8 Minuten, um 11:00 UTC
Gültige Prognose vom 27 um 12 UTC bis 28 um 18 UTC
Wind 12 kt aus Nord
Sichtweite 10 km oder mehr
keine Wolken unter 1500 m und keine Kumulonimbus oder Gewitterwolken
Übergehend zu
vom 28 um 04 UTC bis 28 um 06 UTC
Wind 10 kt aus Ost/Nordost

TAF: LFQQ 271100Z 2712/2818 36012KT CAVOK BECMG 2804/2806 06010KT

Wetterbeobachtungen und Prognosen von mehr als 4000 Flughäfen (METAR und TAF Bericht).

Die verfügbaren Stationen werden durch gelbe und rote Markierungen auf der Karte dargestellt.

Führen Sie die Maus auf sie, um den Namen der Station zu sehen.

Darauf klicken, um die Beobachtung von Wetterbeobachtungen und Prognosen zu sehen.

Um die Karte zu ändern : klicken Sie auf den grünen Tasten mit einem schwarzen Kreuz Zum Vergrößern, auf den grünen Button mit einem Gedankenstrich zu verkleinern, oder auf die grünen Pfeile für benachbarte Karten.


METAR-TAF: